Time;durP1;ratioP1;P1;durP2;ratioP2;P2;SDS_P1;SDS_P2;PMS_P1;PMS_P2;Temp;Humidity;BMP_temperature;BMP_pressure;BME280_temperature;BME280_humidity;BME280_pressure;Samples;Min_cycle;Max_cycle;Signal;HPM_P1;HPM_P2
2021/06/04 00:00:45;;;;;;;5.15;4.18;;;16.00;59.60;;;15.64;43.08;95591.34;4719588;29;20238;-80
2021/06/04 00:04:18;;;;;;;4.10;3.70;;;15.90;60.10;;;15.65;43.10;95595.59;5134872;27;20581;-81
2021/06/04 00:06:46;;;;;;;4.70;3.67;;;16.00;60.00;;;15.65;42.97;95590.31;5106213;28;20626;-81
2021/06/04 00:09:15;;;;;;;6.30;4.05;;;15.90;60.20;;;15.67;43.36;95593.56;5066995;28;20269;-81
2021/06/04 00:11:54;;;;;;;4.72;4.03;;;15.90;60.20;;;15.66;43.32;95598.03;5038616;28;20251;-81
2021/06/04 00:14:33;;;;;;;5.18;3.67;;;15.90;60.30;;;15.68;43.79;95589.88;5021707;28;20247;-81
2021/06/04 00:17:25;;;;;;;4.75;3.97;;;15.90;60.30;;;15.67;43.46;95590.91;4912558;28;20691;-80
2021/06/04 00:19:52;;;;;;;7.18;3.83;;;15.90;60.30;;;15.68;43.36;95585.44;4712152;29;20222;-81
2021/06/04 00:25:00;;;;;;;4.50;3.97;;;15.90;60.30;;;15.67;43.57;95591.75;5129154;27;20562;-81
2021/06/04 00:27:27;;;;;;;4.65;4.25;;;15.90;60.30;;;15.63;43.21;95582.56;5074211;28;20250;-80
2021/06/04 00:29:54;;;;;;;4.25;3.85;;;15.90;61.20;;;15.63;43.61;95589.72;5067566;28;20239;-81
2021/06/04 00:32:22;;;;;;;5.13;4.10;;;15.80;60.20;;;15.60;43.25;95582.16;5028836;28;20649;-80
2021/06/04 00:34:50;;;;;;;3.75;3.45;;;15.80;60.20;;;15.56;43.47;95584.41;5033238;28;20315;-82
2021/06/04 00:37:18;;;;;;;4.20;3.50;;;15.80;60.20;;;15.50;43.21;95580.78;4986858;28;20734;-81
2021/06/04 00:39:45;;;;;;;4.32;3.92;;;15.80;60.20;;;15.47;43.38;95586.47;4953295;28;20213;-80
2021/06/04 00:42:29;;;;;;;4.47;4.07;;;15.80;61.10;;;15.46;43.70;95582.19;4844238;29;20549;-81
2021/06/04 00:45:11;;;;;;;4.45;3.90;;;15.70;60.30;;;15.40;43.62;95579.56;5149422;27;20310;-80
2021/06/04 00:47:39;;;;;;;4.05;3.67;;;15.70;60.10;;;15.35;43.53;95575.69;5087182;28;20204;-80
2021/06/04 00:50:11;;;;;;;4.85;3.85;;;15.70;60.10;;;15.33;43.63;95579.56;5029020;28;20260;-80
2021/06/04 00:52:41;;;;;;;4.85;3.70;;;15.60;60.00;;;15.27;43.68;95578.56;4999451;28;20223;-81
2021/06/04 00:55:14;;;;;;;4.68;4.00;;;15.60;60.00;;;15.23;43.73;95579.19;4972364;28;20246;-80
2021/06/04 00:57:43;;;;;;;5.53;4.03;;;15.60;60.50;;;15.20;43.71;95583.06;4867360;29;20249;-80
2021/06/04 01:00:38;;;;;;;4.65;3.47;;;15.50;60.00;;;15.13;44.03;95574.31;4846489;29;20821;-80
2021/06/04 01:03:26;;;;;;;5.00;4.18;;;15.50;60.60;;;15.11;44.15;95584.25;5134656;27;20579;-80
2021/06/04 01:06:24;;;;;;;5.70;3.90;;;15.50;60.90;;;15.07;44.28;95583.06;5073996;28;20258;-81
2021/06/04 01:09:19;;;;;;;5.35;4.03;;;15.40;61.10;;;15.00;44.21;95573.31;5045967;28;20277;-81
2021/06/04 01:12:40;;;;;;;4.47;4.07;;;15.40;61.40;;;14.95;44.46;95569.63;5024902;28;20295;-80
2021/06/04 01:15:28;;;;;;;4.15;3.75;;;15.30;61.30;;;14.89;44.88;95566.78;4837836;29;20275;-80
2021/06/04 01:18:14;;;;;;;6.05;4.07;;;15.30;61.40;;;14.89;45.33;95571.25;4777893;29;20247;-79
2021/06/04 01:20:49;;;;;;;4.45;4.05;;;15.30;61.90;;;14.87;45.23;95568.00;4745439;29;20221;-80
2021/06/04 01:25:18;;;;;;;5.03;4.20;;;15.20;61.70;;;14.82;45.18;95573.09;5130843;27;21128;-80
2021/06/04 01:27:48;;;;;;;4.78;4.28;;;15.20;61.40;;;14.80;45.25;95567.19;5059771;28;20212;-80
2021/06/04 01:30:39;;;;;;;5.07;4.50;;;15.10;61.30;;;14.76;45.43;95569.41;5052373;28;20198;-81
2021/06/04 01:33:17;;;;;;;4.90;4.40;;;15.10;62.30;;;14.74;45.44;95574.09;5036921;28;20314;-80
2021/06/04 01:35:51;;;;;;;4.78;4.32;;;15.20;62.10;;;14.73;45.57;95575.91;5010332;28;20246;-81
2021/06/04 01:38:25;;;;;;;5.13;4.22;;;15.00;62.20;;;14.71;45.40;95577.94;4874528;29;20238;-81
2021/06/04 01:40:58;;;;;;;5.80;4.20;;;15.20;61.90;;;14.69;45.48;95579.97;4703389;29;20249;-81
2021/06/04 01:45:33;;;;;;;4.50;4.10;;;15.10;61.70;;;14.62;45.35;95573.81;5147197;27;21147;-80
2021/06/04 01:48:16;;;;;;;5.70;4.63;;;14.90;62.00;;;14.63;45.61;95582.56;5098869;28;20522;-81
2021/06/04 01:51:39;;;;;;;5.20;4.15;;;15.00;62.30;;;14.59;45.42;95579.53;5022978;28;20216;-81
2021/06/04 01:54:26;;;;;;;5.68;4.28;;;14.90;62.10;;;14.58;45.67;95583.97;4989295;28;20595;-80
2021/06/04 01:57:07;;;;;;;4.82;4.32;;;14.90;62.30;;;14.54;45.90;95582.75;4976201;28;20363;-80
2021/06/04 01:59:41;;;;;;;6.50;4.43;;;14.90;62.70;;;14.54;45.66;95585.38;4918098;28;20324;-81
2021/06/04 02:02:31;;;;;;;4.63;4.13;;;14.90;62.20;;;14.52;45.79;95584.78;4810426;29;20216;-81
2021/06/04 02:05:14;;;;;;;5.70;4.40;;;14.90;62.30;;;14.49;45.89;95582.53;5143278;27;20303;-81
2021/06/04 02:07:43;;;;;;;7.10;4.43;;;14.80;62.10;;;14.46;45.90;95587.41;5095356;28;20250;-81
2021/06/04 02:10:18;;;;;;;4.75;4.32;;;14.80;62.10;;;14.41;46.19;95583.56;5105521;28;20292;-80
2021/06/04 02:12:49;;;;;;;4.85;4.05;;;14.70;62.50;;;14.37;46.12;95584.94;5047069;28;20751;-80
2021/06/04 02:15:33;;;;;;;4.63;4.07;;;14.70;62.60;;;14.32;46.23;95595.28;4975253;28;20268;-80
2021/06/04 02:18:29;;;;;;;5.13;4.18;;;14.70;62.50;;;14.28;46.20;95593.25;5004521;28;20245;-81
2021/06/04 02:21:17;;;;;;;4.90;4.40;;;14.60;62.80;;;14.23;46.34;95591.19;4780271;29;20212;-80
2021/06/04 02:26:20;;;;;;;5.55;4.78;;;14.60;63.00;;;14.17;46.53;95592.81;5138488;27;20554;-79
2021/06/04 02:29:04;;;;;;;4.82;4.30;;;14.50;62.90;;;14.14;46.39;95585.28;5083523;28;20218;-80
2021/06/04 02:31:41;;;;;;;5.15;4.53;;;14.50;63.20;;;14.11;46.58;95592.78;5054284;28;20197;-80
2021/06/04 02:34:26;;;;;;;4.60;4.20;;;14.50;63.10;;;14.09;46.79;95587.69;5006485;28;20225;-80
2021/06/04 02:37:04;;;;;;;5.35;4.22;;;14.40;63.40;;;14.04;46.75;95588.28;4869381;29;20364;-80
2021/06/04 02:39:46;;;;;;;4.22;3.83;;;14.40;63.00;;;14.02;46.84;95589.50;4773027;29;20675;-80
2021/06/04 02:42:21;;;;;;;5.50;4.50;;;14.30;63.40;;;13.98;46.63;95589.06;4582969;30;20233;-80
2021/06/04 02:46:41;;;;;;;4.93;4.00;;;14.40;63.20;;;13.91;46.71;95591.69;5141055;27;20639;-79
2021/06/04 02:49:12;;;;;;;4.88;4.40;;;14.30;63.50;;;13.89;46.88;95587.59;5064973;28;20273;-79
2021/06/04 02:51:43;;;;;;;4.68;4.22;;;14.20;63.20;;;13.86;46.91;95588.81;5085192;28;20205;-80
2021/06/04 02:54:18;;;;;;;5.93;4.70;;;14.20;62.90;;;13.83;47.38;95588.38;5043193;28;20280;-81
2021/06/04 02:57:04;;;;;;;4.65;4.20;;;14.20;63.50;;;13.80;47.35;95594.84;4992189;28;20596;-81
2021/06/04 02:59:37;;;;;;;5.43;4.80;;;14.20;64.00;;;13.78;47.28;95589.00;4817642;29;20233;-80
2021/06/04 03:02:11;;;;;;;5.40;4.75;;;14.20;63.60;;;13.76;47.68;95594.44;4584302;30;20230;-80
2021/06/04 03:07:24;;;;;;;5.30;4.80;;;14.10;63.90;;;13.74;47.61;95593.00;5138539;27;20551;-79
2021/06/04 03:09:56;;;;;;;5.10;4.60;;;14.00;64.20;;;13.73;47.79;95592.19;5090178;28;20321;-79
2021/06/04 03:12:42;;;;;;;5.40;4.90;;;14.00;63.80;;;13.71;48.10;95593.41;5057921;28;20242;-79
2021/06/04 03:15:40;;;;;;;5.60;4.97;;;14.00;64.60;;;13.71;47.97;95599.47;4990792;28;20204;-79
2021/06/04 03:18:23;;;;;;;5.80;4.65;;;14.00;64.60;;;13.72;47.98;95593.22;4750503;29;20267;-80
2021/06/04 03:20:53;;;;;;;4.75;4.25;;;14.00;64.30;;;13.74;47.90;95595.63;4653261;30;20585;-79
2021/06/04 03:23:35;;;;;;;5.07;4.57;;;14.00;63.90;;;13.74;47.97;95593.84;4614920;30;20243;-79
2021/06/04 03:28:38;;;;;;;6.03;5.10;;;14.00;64.20;;;13.82;48.44;95598.13;5118961;27;20539;-81
2021/06/04 03:31:09;;;;;;;5.65;5.03;;;14.00;64.50;;;13.83;48.48;95591.00;5067527;28;20206;-80
2021/06/04 03:33:38;;;;;;;5.32;4.82;;;14.00;64.50;;;13.88;48.48;95597.34;5058225;28;20280;-80
2021/06/04 03:36:20;;;;;;;5.50;5.00;;;14.00;64.40;;;13.91;48.69;95602.25;5001669;28;20712;-80
2021/06/04 03:38:48;;;;;;;6.47;4.90;;;14.10;65.00;;;13.96;48.48;95595.56;4933536;28;20252;-80
2021/06/04 03:41:21;;;;;;;4.88;4.40;;;14.10;64.50;;;14.01;48.44;95599.25;4890927;29;20219;-80
2021/06/04 03:43:50;;;;;;;5.93;4.47;;;14.20;65.10;;;14.07;48.50;95594.97;4829763;29;20619;-80
2021/06/04 03:49:10;;;;;;;5.22;4.35;;;14.20;64.70;;;14.17;48.69;95599.91;5131538;27;20880;-81
2021/06/04 03:51:41;;;;;;;5.40;4.75;;;14.30;65.10;;;14.23;48.68;95599.94;5092054;28;20229;-80
2021/06/04 03:54:15;;;;;;;6.05;4.80;;;14.30;65.40;;;14.31;48.81;95601.56;5073810;28;20229;-80
2021/06/04 03:56:44;;;;;;;5.80;4.95;;;14.40;65.30;;;14.38;48.82;95602.41;5012430;28;20209;-81
2021/06/04 03:59:12;;;;;;;5.05;4.55;;;14.40;65.10;;;14.41;48.43;95599.38;4994472;28;20252;-81
2021/06/04 04:01:49;;;;;;;5.30;4.78;;;14.50;65.20;;;14.52;48.88;95602.44;5001000;28;20205;-79
2021/06/04 04:04:16;;;;;;;14.93;4.95;;;14.50;65.70;;;14.57;48.48;95595.56;4910195;28;20326;-80
2021/06/04 04:06:44;;;;;;;5.47;4.78;;;14.60;65.30;;;14.65;48.82;95596.41;4750154;29;20672;-83
2021/06/04 04:09:22;;;;;;;5.88;5.25;;;14.60;65.50;;;14.73;48.69;95601.50;5132692;27;20338;-80
2021/06/04 04:11:53;;;;;;;6.65;4.72;;;14.70;65.40;;;14.80;48.93;95596.25;5086337;28;20197;-81
2021/06/04 04:14:23;;;;;;;5.68;4.93;;;14.70;65.60;;;14.88;49.04;95603.97;5052068;28;20236;-82
2021/06/04 04:16:50;;;;;;;6.13;5.53;;;14.90;65.70;;;14.93;48.81;95596.25;4976080;28;20577;-80
2021/06/04 04:19:20;;;;;;;6.15;4.90;;;14.90;65.60;;;15.02;48.89;95599.50;4974097;28;20287;-81
2021/06/04 04:21:48;;;;;;;6.07;5.47;;;14.90;65.70;;;15.08;49.00;95598.69;4960002;28;20220;-80
2021/06/04 04:24:21;;;;;;;6.20;5.60;;;15.00;65.80;;;15.20;49.41;95604.19;4903353;29;20236;-81
2021/06/04 04:29:34;;;;;;;7.40;5.50;;;15.10;66.10;;;15.39;49.14;95601.75;5131557;27;20659;-80
2021/06/04 04:32:11;;;;;;;5.97;5.38;;;15.30;66.10;;;15.45;49.19;95593.81;5089554;28;20204;-81
2021/06/04 04:34:40;;;;;;;5.95;5.45;;;15.30;66.30;;;15.57;49.10;95595.81;5068136;28;20551;-80
2021/06/04 04:37:06;;;;;;;7.63;5.55;;;15.40;66.10;;;15.65;49.43;95599.06;5055535;28;20557;-79
2021/06/04 04:39:40;;;;;;;6.35;5.72;;;15.50;66.30;;;15.76;49.41;95588.84;4973512;28;20563;-81
2021/06/04 04:42:11;;;;;;;6.57;5.75;;;15.60;66.60;;;15.87;49.62;95593.53;4895512;29;20691;-80
2021/06/04 04:44:40;;;;;;;6.32;5.72;;;15.60;66.50;;;15.96;49.45;95592.28;4788040;29;20237;-81
2021/06/04 04:47:22;;;;;;;6.20;5.60;;;15.80;66.40;;;16.06;49.50;95594.47;5148410;27;20528;-81
2021/06/04 04:49:49;;;;;;;8.27;5.88;;;15.90;66.50;;;16.16;49.36;95596.69;5081081;28;20244;-81
2021/06/04 04:52:18;;;;;;;7.93;6.07;;;16.00;66.30;;;16.27;49.33;95595.22;5054407;28;20250;-80
2021/06/04 04:54:49;;;;;;;8.05;5.65;;;16.00;66.30;;;16.36;49.38;95593.97;5021122;28;20219;-79
2021/06/04 04:57:18;;;;;;;6.22;5.60;;;16.10;66.50;;;16.47;49.22;95595.94;4922346;28;20278;-81
2021/06/04 04:59:45;;;;;;;5.72;5.18;;;16.20;66.30;;;16.57;49.21;95598.13;4841053;29;20494;-81
2021/06/04 05:02:12;;;;;;;5.88;5.25;;;16.30;66.30;;;16.69;49.06;95594.81;4819633;29;20664;-80
2021/06/04 05:04:39;;;;;;;7.25;6.30;;;16.50;66.40;;;16.74;49.22;95587.84;4703365;29;20237;-84
2021/06/04 05:09:17;;;;;;;5.90;5.32;;;16.50;66.20;;;16.95;48.93;95593.84;5127558;27;21114;-81
2021/06/04 05:11:46;;;;;;;6.53;5.47;;;16.70;66.20;;;17.06;49.61;95592.34;5088637;28;20202;-80
2021/06/04 05:14:13;;;;;;;7.75;5.72;;;16.80;66.30;;;17.16;49.05;95599.81;5012664;28;20219;-81
2021/06/04 05:16:40;;;;;;;6.43;5.82;;;16.90;66.30;;;17.26;49.05;95602.81;5034625;28;20208;-80
2021/06/04 05:19:08;;;;;;;8.43;6.88;;;17.00;66.20;;;17.34;48.89;95591.91;4958423;28;20300;-80
2021/06/04 05:21:35;;;;;;;7.00;5.93;;;17.10;66.40;;;17.44;48.77;95602.84;4878799;29;20214;-81
2021/06/04 05:24:04;;;;;;;7.90;6.75;;;17.20;66.30;;;17.53;48.88;95597.25;4821105;29;20375;-80
2021/06/04 05:26:33;;;;;;;6.93;6.20;;;17.20;66.30;;;17.64;48.55;95598.34;4673792;30;20250;-79
2021/06/04 05:29:08;;;;;;;7.05;6.18;;;17.30;66.10;;;17.73;48.53;95605.81;5135799;27;20322;-78
2021/06/04 05:31:38;;;;;;;7.13;6.35;;;17.50;66.00;;;17.79;48.93;95609.44;5101149;28;20504;-80
2021/06/04 05:34:06;;;;;;;6.95;5.80;;;17.60;66.00;;;17.92;48.64;95613.81;5112264;27;20266;-79
2021/06/04 05:36:34;;;;;;;8.65;6.43;;;17.60;65.90;;;17.99;48.60;95600.47;5096090;28;20212;-80
2021/06/04 05:39:20;;;;;;;6.82;5.78;;;17.70;65.80;;;18.06;48.41;95611.84;5000024;28;20703;-79
2021/06/04 05:41:52;;;;;;;7.72;6.57;;;17.80;66.00;;;18.13;48.69;95609.13;4861575;29;20749;-79
2021/06/04 05:44:25;;;;;;;9.02;6.22;;;17.90;65.90;;;18.20;48.61;95607.16;4764687;29;20705;-80
2021/06/04 05:47:13;;;;;;;7.63;6.18;;;17.90;66.00;;;18.28;48.25;95611.38;5129042;27;20913;-80
2021/06/04 05:49:41;;;;;;;7.03;6.25;;;18.00;65.80;;;18.36;48.38;95608.44;5084783;28;20571;-80
2021/06/04 05:52:09;;;;;;;7.03;6.32;;;18.10;65.80;;;18.45;48.28;95612.38;5071485;28;20668;-80
2021/06/04 05:54:43;;;;;;;9.38;6.53;;;18.10;65.80;;;18.54;48.38;95610.22;5006588;28;20225;-80
2021/06/04 05:57:11;;;;;;;6.30;5.72;;;18.20;65.80;;;18.61;48.21;95612.81;4949968;28;20251;-80
2021/06/04 05:59:38;;;;;;;8.10;6.20;;;18.30;65.70;;;18.69;48.36;95605.31;4846257;29;20243;-81
2021/06/04 06:02:05;;;;;;;7.75;6.47;;;18.40;65.80;;;18.81;48.21;95604.53;4681361;30;20247;-80
2021/06/04 06:04:32;;;;;;;6.82;6.07;;;18.40;65.70;;;18.90;47.67;95605.84;4560554;30;20245;-79
2021/06/04 06:08:30;;;;;;;8.48;5.82;;;18.50;65.80;;;19.01;47.69;95609.63;5131788;27;20579;-80
2021/06/04 06:10:57;;;;;;;6.20;5.60;;;18.70;65.60;;;19.11;47.66;95611.72;5078291;28;20193;-80
2021/06/04 06:13:25;;;;;;;9.20;5.97;;;18.80;65.50;;;19.18;47.76;95615.09;5064200;28;20229;-80
2021/06/04 06:15:57;;;;;;;7.55;5.60;;;18.80;65.40;;;19.27;47.24;95616.34;5034897;28;20253;-79
2021/06/04 06:18:24;;;;;;;6.70;6.07;;;18.90;65.40;;;19.38;47.20;95620.06;4999169;28;20281;-80
2021/06/04 06:20:52;;;;;;;7.88;6.25;;;19.00;65.40;;;19.43;47.41;95609.56;4866455;29;20235;-79
2021/06/04 06:23:26;;;;;;;7.55;6.40;;;19.00;65.40;;;19.52;47.95;95612.69;4705859;29;20247;-79
2021/06/04 06:26:02;;;;;;;6.75;6.07;;;19.10;65.70;;;19.62;47.28;95622.75;4480962;31;20544;-79
2021/06/04 06:28:42;;;;;;;7.28;6.28;;;19.20;65.50;;;19.70;47.48;95617.09;5113750;27;20320;-81
2021/06/04 06:31:17;;;;;;;8.60;6.68;;;19.30;65.50;;;19.78;47.31;95618.59;5064897;28;20272;-80
2021/06/04 06:33:44;;;;;;;10.00;6.70;;;19.40;65.60;;;19.81;47.51;95610.94;5013557;28;20229;-81
2021/06/04 06:36:15;;;;;;;7.72;6.93;;;19.50;65.30;;;19.88;47.41;95623.34;5013733;28;20209;-81
2021/06/04 06:38:41;;;;;;;8.20;6.47;;;19.50;65.30;;;19.95;47.36;95621.38;4908828;28;20237;-81
2021/06/04 06:41:11;;;;;;;7.40;6.55;;;19.60;65.30;;;20.03;47.15;95623.69;4828279;29;20253;-81
2021/06/04 06:43:40;;;;;;;6.97;6.28;;;19.60;65.30;;;20.11;47.31;95618.00;4653379;30;20256;-80
2021/06/04 06:46:09;;;;;;;8.10;6.30;;;19.70;65.40;;;20.24;47.12;95613.47;4446052;31;20461;-80
2021/06/04 06:48:47;;;;;;;7.22;6.53;;;19.80;65.50;;;20.34;47.47;95613.66;5112376;27;20675;-80
2021/06/04 06:51:14;;;;;;;10.25;6.28;;;19.90;65.50;;;20.49;47.40;95623.81;5048094;28;20199;-80
2021/06/04 06:53:42;;;;;;;8.02;6.03;;;20.00;65.60;;;20.61;47.26;95623.78;5064373;28;20707;-81
2021/06/04 06:56:12;;;;;;;6.75;5.82;;;20.10;65.60;;;20.72;47.16;95620.28;5024935;28;20238;-80
2021/06/04 06:58:39;;;;;;;7.35;6.30;;;20.20;65.50;;;20.87;46.75;95618.94;4992399;28;20242;-80
2021/06/04 07:01:06;;;;;;;7.40;6.70;;;20.30;65.30;;;20.97;46.96;95624.47;4918479;28;20206;-80
2021/06/04 07:03:36;;;;;;;5.93;5.43;;;20.40;65.60;;;21.10;46.69;95634.81;4739297;29;20573;-81
2021/06/04 07:06:12;;;;;;;6.70;6.10;;;20.50;65.30;;;21.24;47.20;95634.53;4517773;31;20225;-80
2021/06/04 07:08:50;;;;;;;7.20;6.50;;;20.60;65.70;;;21.38;46.62;95625.13;5128983;27;20322;-81
2021/06/04 07:11:18;;;;;;;6.40;5.78;;;20.70;65.50;;;21.53;46.71;95634.44;5094176;27;20225;-80
2021/06/04 07:13:47;;;;;;;6.10;5.60;;;20.90;65.30;;;21.68;46.63;95629.34;5084599;28;20746;-81
2021/06/04 07:16:14;;;;;;;7.65;5.38;;;21.00;65.20;;;21.82;46.25;95632.47;5036889;28;20249;-80
2021/06/04 07:18:41;;;;;;;6.05;5.45;;;21.10;65.10;;;21.95;46.10;95631.34;4981952;28;20364;-80
2021/06/04 07:21:12;;;;;;;7.78;7.00;;;21.40;65.20;;;22.07;45.81;95625.91;4835396;29;20219;-81
2021/06/04 07:23:38;;;;;;;7.05;6.03;;;21.40;65.20;;;22.22;45.91;95626.06;4635914;30;20240;-83
2021/06/04 07:26:06;;;;;;;6.05;5.55;;;21.50;64.70;;;22.30;46.09;95624.84;4498992;31;20263;-81
2021/06/04 07:28:40;;;;;;;7.00;5.95;;;21.60;64.80;;;22.45;45.77;95626.09;5130736;27;20837;-81
2021/06/04 07:31:11;;;;;;;6.63;5.97;;;21.80;64.90;;;22.58;46.15;95630.28;5094243;28;20211;-80
2021/06/04 07:33:46;;;;;;;6.30;5.70;;;21.90;65.00;;;22.71;45.50;95627.22;5059681;28;20570;-80
2021/06/04 07:36:19;;;;;;;6.25;5.65;;;22.00;65.10;;;22.81;45.60;95623.84;5033015;28;20209;-80
2021/06/04 07:38:47;;;;;;;5.97;5.25;;;22.10;65.10;;;22.95;45.47;95625.03;4942848;28;20234;-81
2021/06/04 07:41:15;;;;;;;6.75;5.82;;;22.30;65.00;;;23.09;44.98;95628.09;4889061;29;20213;-83
2021/06/04 07:43:45;;;;;;;6.25;5.65;;;22.30;64.80;;;23.22;45.20;95628.78;4804500;29;20246;-81
2021/06/04 07:46:54;;;;;;;6.97;5.43;;;22.50;64.50;;;23.32;44.68;95615.50;5120430;27;20645;-80
2021/06/04 07:49:23;;;;;;;7.50;5.75;;;22.60;64.30;;;23.39;44.89;95621.44;5042337;28;20292;-79
2021/06/04 07:51:55;;;;;;;5.72;5.22;;;22.70;64.10;;;23.46;44.71;95622.03;5033929;28;20669;-80
2021/06/04 07:54:26;;;;;;;6.07;5.07;;;22.80;63.90;;;23.53;44.34;95623.69;5002379;28;20236;-81
2021/06/04 07:56:54;;;;;;;5.38;4.88;;;22.90;63.60;;;23.60;44.12;95630.44;4910788;29;20644;-81
2021/06/04 07:59:22;;;;;;;6.50;5.90;;;23.00;63.60;;;23.69;43.56;95627.28;4793782;29;20230;-81
2021/06/04 08:01:50;;;;;;;5.93;5.32;;;23.00;63.50;;;23.77;44.06;95624.13;4770061;29;20304;-81
2021/06/04 08:04:17;;;;;;;5.50;5.00;;;23.10;63.50;;;23.85;43.94;95618.25;4663749;30;20255;-81
2021/06/04 08:06:55;;;;;;;7.55;5.65;;;23.20;63.40;;;23.94;43.59;95624.78;5137668;27;20667;-81
2021/06/04 08:09:22;;;;;;;5.55;5.05;;;23.30;63.30;;;24.04;43.56;95625.94;5109132;27;20610;-81
2021/06/04 08:11:56;;;;;;;6.35;5.60;;;23.40;63.10;;;24.13;43.52;95629.72;5082010;28;20305;-80
2021/06/04 08:14:25;;;;;;;6.63;5.65;;;23.50;63.00;;;24.21;43.03;95626.53;5038783;28;20238;-80
2021/06/04 08:16:58;;;;;;;5.47;4.97;;;23.50;62.80;;;24.33;43.03;95623.66;4981103;28;20741;-81
2021/06/04 08:19:29;;;;;;;6.32;5.57;;;23.60;62.70;;;24.44;42.76;95624.50;4918762;29;20372;-80
2021/06/04 08:21:57;;;;;;;5.97;5.47;;;23.70;62.70;;;24.54;42.80;95629.09;4775719;29;20274;-80
2021/06/04 08:24:43;;;;;;;6.40;5.20;;;23.80;62.60;;;24.64;42.37;95620.28;5112263;27;21122;-81
2021/06/04 08:27:11;;;;;;;5.68;4.70;;;23.90;62.30;;;24.73;41.99;95619.53;5092976;28;20206;-80
2021/06/04 08:29:37;;;;;;;8.98;5.22;;;24.00;62.00;;;24.80;42.05;95616.56;5066465;28;20244;-80
2021/06/04 08:32:07;;;;;;;5.35;4.75;;;24.10;61.90;;;24.85;41.77;95613.09;5081803;28;20392;-80
2021/06/04 08:34:34;;;;;;;5.45;4.95;;;24.20;62.60;;;24.90;41.78;95615.78;4987335;28;20233;-80
2021/06/04 08:37:02;;;;;;;5.78;5.10;;;24.20;61.70;;;24.96;41.53;95620.09;4889099;28;20368;-81
2021/06/04 08:39:30;;;;;;;5.60;5.07;;;24.30;61.40;;;25.03;41.60;95617.16;4678791;30;20712;-81
2021/06/04 08:42:36;;;;;;;4.97;4.43;;;24.40;62.40;;;25.05;41.90;95602.41;4455980;31;20228;-80
2021/06/04 08:45:41;;;;;;;6.30;4.82;;;24.50;61.60;;;25.12;41.23;95602.16;5150186;27;20378;-80
2021/06/04 08:48:49;;;;;;;5.60;4.80;;;24.50;61.10;;;25.21;40.80;95605.91;5066803;28;20268;-79
2021/06/04 08:51:24;;;;;;;5.15;4.63;;;24.60;61.10;;;25.32;40.65;95601.34;5073316;28;20737;-79
2021/06/04 08:54:06;;;;;;;4.78;4.28;;;24.70;60.60;;;25.40;40.13;95598.16;5081175;28;20713;-79
2021/06/04 08:56:44;;;;;;;6.60;5.00;;;24.70;60.30;;;25.47;39.91;95594.38;5074796;28;20661;-81
2021/06/04 08:59:16;;;;;;;4.65;4.25;;;24.80;60.20;;;25.59;39.88;95594.13;4987522;28;20686;-81
2021/06/04 09:02:10;;;;;;;6.13;4.80;;;24.90;60.20;;;25.65;39.80;95590.34;4748062;29;20221;-81
2021/06/04 09:06:32;;;;;;;4.60;4.20;;;24.90;60.10;;;25.80;40.03;95595.66;5140806;27;21126;-81
2021/06/04 09:09:41;;;;;;;4.30;3.90;;;25.10;60.30;;;25.89;39.73;95591.38;5037235;28;20770;-81
2021/06/04 09:12:21;;;;;;;4.57;4.03;;;25.20;59.70;;;26.00;39.39;95594.00;4983349;28;20265;-81
2021/06/04 09:14:50;;;;;;;5.15;4.75;;;25.30;59.40;;;26.08;39.23;95593.47;4926001;28;20692;-81
2021/06/04 09:17:57;;;;;;;6.45;5.85;;;25.30;59.90;;;26.14;39.19;95583.53;4818207;29;20213;-80
2021/06/04 09:20:28;;;;;;;8.93;4.97;;;25.40;59.80;;;26.28;39.33;95581.03;4692361;30;20225;-82
2021/06/04 09:23:02;;;;;;;5.10;4.60;;;25.50;59.90;;;26.40;39.51;95586.09;4469218;31;20226;-81
2021/06/04 09:28:10;;;;;;;4.85;4.45;;;25.60;60.10;;;26.67;39.02;95585.69;5146008;27;21084;-81
2021/06/04 09:30:45;;;;;;;4.35;3.95;;;25.80;59.70;;;26.82;38.69;95579.47;5075142;28;20212;-81
2021/06/04 09:33:23;;;;;;;5.65;4.22;;;25.90;59.00;;;26.97;38.97;95583.94;5070801;28;20224;-82
2021/06/04 09:36:13;;;;;;;5.88;4.50;;;26.00;59.20;;;27.08;38.05;95592.75;5004274;28;20223;-81
2021/06/04 09:38:55;;;;;;;7.88;5.30;;;26.20;58.90;;;27.19;37.57;95596.16;4878969;29;20247;-80
2021/06/04 09:41:24;;;;;;;4.55;3.90;;;26.30;58.00;;;27.25;37.15;95590.44;4820099;29;20232;-82
2021/06/04 09:44:09;;;;;;;6.40;4.68;;;26.40;57.30;;;27.30;37.18;95587.72;4680075;30;20253;-82
2021/06/04 09:49:42;;;;;;;4.35;3.92;;;26.60;56.90;;;27.38;36.85;95572.84;5109916;27;20586;-81
2021/06/04 09:52:27;;;;;;;5.03;4.57;;;26.60;57.20;;;27.42;36.86;95581.97;5084312;27;20222;-81
2021/06/04 09:55:22;;;;;;;5.32;4.05;;;26.60;56.80;;;27.42;36.98;95581.97;5080310;28;20213;-81
2021/06/04 09:58:14;;;;;;;8.15;4.75;;;26.70;57.00;;;27.46;36.93;95574.94;5068381;28;20585;-81
2021/06/04 10:01:07;;;;;;;4.85;4.20;;;26.70;57.00;;;27.51;36.89;95576.78;4997093;28;20222;-81
2021/06/04 10:03:40;;;;;;;4.25;3.85;;;26.80;56.60;;;27.58;36.39;95566.47;4776602;29;20343;-81
2021/06/04 10:06:07;;;;;;;4.82;4.30;;;26.80;55.70;;;27.68;36.23;95567.47;4587975;30;20237;-83
2021/06/04 10:11:29;;;;;;;4.85;3.70;;;26.90;55.70;;;27.80;36.12;95562.50;5148210;27;20375;-81
2021/06/04 10:14:12;;;;;;;5.25;3.70;;;27.00;56.00;;;27.85;35.73;95565.13;5070840;28;20245;-81
2021/06/04 10:19:36;;;;;;;4.97;4.47;;;27.10;55.00;;;27.90;35.18;95561.59;5009533;28;20262;-81
2021/06/04 10:22:24;;;;;;;4.35;3.92;;;27.20;55.00;;;27.95;35.49;95565.03;4959627;28;20261;-81
2021/06/04 10:25:10;;;;;;;5.72;3.88;;;27.20;54.70;;;27.97;35.46;95556.66;4906812;29;20298;-81
2021/06/04 10:27:59;;;;;;;4.22;3.83;;;27.30;55.10;;;28.00;35.42;95555.28;4821266;29;20236;-82
2021/06/04 10:32:44;;;;;;;4.00;3.70;;;27.30;54.30;;;27.95;35.00;95551.56;5148658;27;20551;-81
2021/06/04 10:35:27;;;;;;;6.60;3.72;;;27.40;54.10;;;27.92;34.73;95544.03;5102431;28;20213;-82
2021/06/04 10:38:37;;;;;;;4.78;4.28;;;27.40;53.70;;;27.91;35.23;95545.09;5062045;28;20218;-82
2021/06/04 10:41:13;;;;;;;4.88;3.75;;;27.30;54.40;;;27.95;35.39;95546.16;5017932;28;20245;-81
2021/06/04 10:44:33;;;;;;;4.38;3.97;;;27.40;54.10;;;28.05;35.18;95542.56;4975429;28;20672;-81
2021/06/04 10:47:24;;;;;;;5.25;3.88;;;27.40;54.50;;;28.17;34.92;95544.84;4840115;29;20229;-81
2021/06/04 10:49:55;;;;;;;5.10;3.47;;;27.50;53.80;;;28.25;33.92;95543.41;4662133;30;20240;-81
2021/06/04 10:54:45;;;;;;;5.65;3.97;;;27.50;52.90;;;28.34;34.16;95532.78;5134722;27;20585;-81
2021/06/04 10:57:28;;;;;;;13.38;5.05;;;27.60;53.70;;;28.41;34.11;95534.00;5075932;28;20267;-81
2021/06/04 11:00:14;;;;;;;20.70;4.78;;;27.70;52.90;;;28.48;34.37;95538.25;5064251;28;20228;-81
2021/06/04 11:02:43;;;;;;;4.20;3.58;;;27.70;52.80;;;28.54;33.66;95535.19;5041775;28;20654;-81
2021/06/04 11:05:47;;;;;;;5.25;3.72;;;27.80;52.60;;;28.57;33.76;95542.69;4927879;28;20267;-80
2021/06/04 11:08:37;;;;;;;7.80;3.80;;;27.90;52.70;;;28.63;34.38;95538.03;4824330;29;20266;-81
2021/06/04 11:11:40;;;;;;;3.97;3.45;;;27.90;52.70;;;28.69;33.76;95539.59;4667294;30;20309;-81
2021/06/04 11:14:43;;;;;;;3.80;3.50;;;28.00;52.50;;;28.71;33.42;95534.72;5134744;27;20867;-81
2021/06/04 11:17:15;;;;;;;3.67;3.38;;;28.00;52.00;;;28.72;33.21;95536.31;5087140;28;20216;-82
2021/06/04 11:19:49;;;;;;;3.40;3.10;;;28.00;51.60;;;28.73;32.83;95543.31;5070699;28;20266;-81
2021/06/04 11:22:26;;;;;;;3.85;3.45;;;28.10;51.90;;;28.75;33.21;95538.41;5071037;28;20196;-81
2021/06/04 11:24:59;;;;;;;3.78;3.45;;;28.10;51.80;;;28.78;32.92;95537.03;5021770;28;20384;-81
2021/06/04 11:27:45;;;;;;;3.67;3.38;;;28.10;52.00;;;28.83;33.05;95536.97;4893433;28;20573;-81
2021/06/04 11:30:27;;;;;;;3.63;3.17;;;28.20;52.00;;;28.88;32.82;95528.78;4781184;29;21001;-82
2021/06/04 11:35:37;;;;;;;3.97;3.40;;;28.20;50.90;;;28.96;32.01;95535.41;5133493;27;20657;-81
2021/06/04 11:38:24;;;;;;;33.90;4.88;;;28.20;50.30;;;28.97;31.97;95534.31;5074774;28;20239;-82
2021/06/04 11:40:55;;;;;;;6.97;3.55;;;28.30;50.60;;;29.00;31.57;95532.91;5087359;28;20202;-82
2021/06/04 11:43:29;;;;;;;4.05;2.92;;;28.30;50.50;;;28.99;32.34;95534.84;5028254;28;20706;-81